Ride Results

Jill Sheean Memorial (04-02-2006)
Ride distance: 80.0 km

Outcomes - Jill Sheean Memorial (04-02-2006)
Division No. of Entries Retired / DNE Completed Withdrawn Ineligible V/O Percentage Completed
HW 4 - 3 - - 1 75.00%
MW 16 - 13 - - 3 81.25%
LW 8 - 4 - - 4 50.00%
JN 4 - 2 1 - 1 50.00%
Totals 32 - 22 1 - 9 68.75%
Results - Jill Sheean Memorial (04-02-2006)
No. Rider Horse Place Time Leg Speeds Total
Km/Hr
H/R bpm
Heavyweight
4 Stuart King Chilli Pepper 1 5:36:00 16.7, 12.4 14.29 35, 44, 54 (Avg:49)
1 Adam Richardson Stoodleigh Bey Abby 2 5:47:00 15.6, 12.3 13.83 39, 41, 50 (Avg:45)
3 Tony Purton Beer Street Tiger Lily 3 7:13:00 13.3, 9.4 11.09 40, 43, 53 (Avg:48)
2 Trenton Huxtable Paluka Aladdin Heart Rate L2 0:00:00 12.4, 8.9 - 40, 45, 65 (Avg:55)
Middleweight
9 Dianne Walsh Tierview El Mishkatarn 1 5:47:00 15.9, 12.1 13.83 31, 45, 56 (Avg:50)
17 Pam Blackwood Dutch Koko 2 6:12:02 13.3, 12.4 12.90 32, 39, 56 (Avg:47)
19 Sonia Brown-Cordell Santashka Dances on Air 3 6:12:03 13.2, 12.5 12.90 34, 42, 56 (Avg:49)
15 Janine Parr Madame Pandora 4 6:16:01 15.5, 10.8 12.77 30, 37, 42 (Avg:39)
16 Robyn Nibbs Elphyn Prince 5 6:16:02 15.5, 10.8 12.76 29, 49, 54 (Avg:51)
11 Helen Astell Pancho 6 6:16:03 13.3, 12.2 12.76 36, 42, 55 (Avg:48)
12 Tania Jago River Gum Bounty 7 6:30:00 14.7, 10.5 12.31 35, 42, 58 (Avg:50)
20 Phillip Robertson Touchwarr Shara 8 7:13:02 13.3, 9.4 11.08 34, 44, 46 (Avg:45)
6 Joanne Marshall Inshallah Windsong 9 7:24:00 13.1, 9.1 10.81 38, 42, 52 (Avg:47)
14 Shayne Williams Shayelle Jackson 9 7:24:00 13.1, 9.1 10.81 35, 42, 53 (Avg:47)
10 Karyn Holden Elphyn Timothy 11 7:28:00 12.1, 9.5 10.71 37, 42, 44 (Avg:43)
7 Tamieka Webb Montego Star 12 7:40:00 13.1, 8.6 10.43 37, 44, 49 (Avg:46)
18 Tracey Wyllie Ike Major 12 7:40:00 12.4, 8.9 10.43 37, 45, 59 (Avg:52)
13 Gavin Bignell Malricia Walter Lame L2 0:00:00 12.4, 9.1 - 30, 39, 0 (Avg:19)
5 Libby Webb Sayida Mufti Heart Rate L2 0:00:00 13.1, 8.6 - 42, 52, 62 (Avg:57)
8 Carol Dobson Three Trunks Hamos Lame L1 0:00:00 16.7 - 29, 50 (Avg:50)
Lightweight
21 Tracey Nutting Shemali Mikalaa 1 5:36:00 15.9, 12.9 14.29 37, 42, 46 (Avg:44)
25 Kylie Williams Baye 2 6:17:00 13.3, 12.1 12.73 42, 44, 57 (Avg:50)
28 Jenny Keygan Elphyn Max 3 7:28:00 12.1, 9.5 10.71 32, 43, 51 (Avg:47)
24 Toni Sheehan Orabanda Casey Jones 4 7:35:00 12.4, 9.1 10.55 41, 52, 58 (Avg:55)
27 Angie Clark Enderby Rakaia Lame L2 0:00:00 13.3, 9.1 - 40, 52, 0 (Avg:26)
26 Karen Quinn Zip Heart Rate L2 0:00:00 13.3, 12.1 - 33, 39, 62 (Avg:50)
22 Donna Wall Shasalina Shannondoah Lame L2 0:00:00 13.0, 9.3 - 35, 39, 0 (Avg:19)
23 Anita Hutchins Touchwarr El-Akhair Ajala Lame P/R 0:00:00 - - 47
Junior
30 Brooke Brown-Cordell Santashka Senabi 1 6:12:00 13.2, 12.5 12.90 30, 49, 49 (Avg:49)
32 Dimity Schofield Malricia Sekura 2 7:35:00 12.4, 9.1 10.55 38, 37, 38 (Avg:37)
29 Dimity Schofield Nabowla Nook Nite Lame P/R 0:00:00 - - 30
31 Kelsey Webb Slim Dusty Junior Withdrawn P/R 0:00:00 - - 37